F/V Attalaya Berria — FHCB — position and weather

sailwx.info

Track history (hours):
 
Tides and Currents Weather Stations Pressure Air Temp Water Temp Dewpoint Dewpoint Depression Visibility Wind Speed Wind Dir Waves Ship Positions

F/V Attalaya Berria

Last reported at 2014-Dec-22 03:33 UTC. Time now 2014-Dec-22 15:38 UTC.
Position N 43°23' W 001°47'.

Length 26 m.

Type: Fishing. MMSI: 228315000.

Date/timePositionNaut miles runAvg speedWind from/ knotsBaromVisibWave heightAir tempDewpointWater temp
2014-Dec-22 03:33N 43°23' W 001°47'5 4.8
2014-Dec-22 02:33N 43°23' W 001°40'3 2.6
2014-Dec-22 01:33N 43°26' W 001°41'1 1.0
2014-Dec-22 00:33N 43°27' W 001°41'6 6.4
2014-Dec-21 23:33N 43°31' W 001°34'4 4.4
2014-Dec-21 22:33N 43°35' W 001°31'1 0.6
2014-Dec-21 20:32N 43°36' W 001°31'6 5.8
2014-Dec-21 19:33N 43°31' W 001°34'7 7.2
2014-Dec-21 18:33N 43°27' W 001°42'  
2014-Dec-19 03:32N 43°23' W 001°47'  
2014-Dec-16 07:10N 43°22' W 001°47'11 1.4
2014-Dec-15 23:33N 43°30' W 001°37'3 3.1
2014-Dec-15 22:33N 43°27' W 001°39'4 3.8
2014-Dec-15 21:25N 43°25' W 001°44'1 0.4
2014-Dec-15 18:04N 43°24' W 001°45'  
Track history (hours):
 
Tides and Currents Weather Stations Pressure Air Temp Water Temp Dewpoint Dewpoint Depression Visibility Wind Speed Wind Dir Waves Ship Positions

F/V Attalaya Berria

Last reported at 2014-Dec-22 03:33 UTC. Time now 2014-Dec-22 15:38 UTC.
Position N 43°23' W 001°47'.

Length 26 m.

Type: Fishing. MMSI: 228315000.

Date/timePositionNaut miles runAvg speedWind from/ knotsBaromVisibWave heightAir tempDewpointWater temp
2014-Dec-22 03:33N 43°23' W 001°47'5 4.8
2014-Dec-22 02:33N 43°23' W 001°40'3 2.6
2014-Dec-22 01:33N 43°26' W 001°41'1 1.0
2014-Dec-22 00:33N 43°27' W 001°41'6 6.4
2014-Dec-21 23:33N 43°31' W 001°34'4 4.4
2014-Dec-21 22:33N 43°35' W 001°31'1 0.6
2014-Dec-21 20:32N 43°36' W 001°31'6 5.8
2014-Dec-21 19:33N 43°31' W 001°34'7 7.2
2014-Dec-21 18:33N 43°27' W 001°42'  
2014-Dec-19 03:32N 43°23' W 001°47'  
2014-Dec-16 07:10N 43°22' W 001°47'11 1.4
2014-Dec-15 23:33N 43°30' W 001°37'3 3.1
2014-Dec-15 22:33N 43°27' W 001°39'4 3.8
2014-Dec-15 21:25N 43°25' W 001°44'1 0.4
2014-Dec-15 18:04N 43°24' W 001°45'  

Dump ship's entire track history